sensor_id;sensor_type;location;lat;lon;timestamp;temperature;humidity
67586;SHT31;55785;47.946;20.540;2022-07-10T00:01:22;16.66;62.46
67586;SHT31;55785;47.946;20.540;2022-07-10T00:03:48;16.66;62.16
67586;SHT31;55785;47.946;20.540;2022-07-10T00:06:13;16.62;62.34
67586;SHT31;55785;47.946;20.540;2022-07-10T00:08:38;16.56;62.40
67586;SHT31;55785;47.946;20.540;2022-07-10T00:11:04;16.53;62.10
67586;SHT31;55785;47.946;20.540;2022-07-10T00:13:29;16.55;62.98
67586;SHT31;55785;47.946;20.540;2022-07-10T00:15:54;16.53;62.24
67586;SHT31;55785;47.946;20.540;2022-07-10T00:18:19;16.52;62.99
67586;SHT31;55785;47.946;20.540;2022-07-10T00:20:45;16.53;63.18
67586;SHT31;55785;47.946;20.540;2022-07-10T00:23:10;16.52;62.90
67586;SHT31;55785;47.946;20.540;2022-07-10T00:25:35;16.56;62.87
67586;SHT31;55785;47.946;20.540;2022-07-10T00:28:01;16.51;63.53
67586;SHT31;55785;47.946;20.540;2022-07-10T00:30:26;16.53;63.27
67586;SHT31;55785;47.946;20.540;2022-07-10T00:32:51;16.58;62.68
67586;SHT31;55785;47.946;20.540;2022-07-10T00:35:17;16.58;63.11
67586;SHT31;55785;47.946;20.540;2022-07-10T00:37:42;16.55;63.92
67586;SHT31;55785;47.946;20.540;2022-07-10T00:40:07;16.51;62.45
67586;SHT31;55785;47.946;20.540;2022-07-10T00:42:33;16.49;63.01
67586;SHT31;55785;47.946;20.540;2022-07-10T00:44:59;16.56;63.03
67586;SHT31;55785;47.946;20.540;2022-07-10T00:47:24;16.56;63.10
67586;SHT31;55785;47.946;20.540;2022-07-10T00:49:49;16.59;64.64
67586;SHT31;55785;47.946;20.540;2022-07-10T00:52:17;16.65;62.79
67586;SHT31;55785;47.946;20.540;2022-07-10T00:54:45;16.52;63.00
67586;SHT31;55785;47.946;20.540;2022-07-10T00:57:12;16.51;62.61
67586;SHT31;55785;47.946;20.540;2022-07-10T00:59:38;16.55;62.45
67586;SHT31;55785;47.946;20.540;2022-07-10T01:02:04;16.56;63.08
67586;SHT31;55785;47.946;20.540;2022-07-10T01:04:30;16.48;64.00
67586;SHT31;55785;47.946;20.540;2022-07-10T01:06:55;16.55;62.53
67586;SHT31;55785;47.946;20.540;2022-07-10T01:09:21;16.69;61.05
67586;SHT31;55785;47.946;20.540;2022-07-10T01:11:46;16.70;60.80
67586;SHT31;55785;47.946;20.540;2022-07-10T01:14:12;16.69;61.64
67586;SHT31;55785;47.946;20.540;2022-07-10T01:16:38;16.55;63.40
67586;SHT31;55785;47.946;20.540;2022-07-10T01:19:03;16.52;64.04
67586;SHT31;55785;47.946;20.540;2022-07-10T01:21:31;16.52;64.76
67586;SHT31;55785;47.946;20.540;2022-07-10T01:23:57;16.51;63.64
67586;SHT31;55785;47.946;20.540;2022-07-10T01:26:23;16.48;64.14
67586;SHT31;55785;47.946;20.540;2022-07-10T01:28:49;16.53;62.95
67586;SHT31;55785;47.946;20.540;2022-07-10T01:31:16;16.49;63.20
67586;SHT31;55785;47.946;20.540;2022-07-10T01:33:41;16.53;63.03
67586;SHT31;55785;47.946;20.540;2022-07-10T01:36:07;16.56;62.58
67586;SHT31;55785;47.946;20.540;2022-07-10T01:38:32;16.66;62.34
67586;SHT31;55785;47.946;20.540;2022-07-10T01:40:57;16.63;62.44
67586;SHT31;55785;47.946;20.540;2022-07-10T01:43:23;16.68;62.24
67586;SHT31;55785;47.946;20.540;2022-07-10T01:45:48;16.48;64.28
67586;SHT31;55785;47.946;20.540;2022-07-10T01:48:13;16.56;63.53
67586;SHT31;55785;47.946;20.540;2022-07-10T01:50:39;16.45;64.31
67586;SHT31;55785;47.946;20.540;2022-07-10T01:53:05;16.42;64.82
67586;SHT31;55785;47.946;20.540;2022-07-10T01:55:30;16.36;65.73
67586;SHT31;55785;47.946;20.540;2022-07-10T01:57:55;16.29;66.11
67586;SHT31;55785;47.946;20.540;2022-07-10T02:00:21;16.12;66.72
67586;SHT31;55785;47.946;20.540;2022-07-10T02:02:46;16.00;68.26
67586;SHT31;55785;47.946;20.540;2022-07-10T02:05:11;15.91;67.93
67586;SHT31;55785;47.946;20.540;2022-07-10T02:07:37;15.94;66.67
67586;SHT31;55785;47.946;20.540;2022-07-10T02:10:02;15.93;68.14
67586;SHT31;55785;47.946;20.540;2022-07-10T02:12:28;15.77;70.53
67586;SHT31;55785;47.946;20.540;2022-07-10T02:14:53;15.83;68.44
67586;SHT31;55785;47.946;20.540;2022-07-10T02:17:18;15.96;67.82
67586;SHT31;55785;47.946;20.540;2022-07-10T02:19:43;15.97;68.67
67586;SHT31;55785;47.946;20.540;2022-07-10T02:22:09;15.94;67.85
67586;SHT31;55785;47.946;20.540;2022-07-10T02:24:34;16.00;68.01
67586;SHT31;55785;47.946;20.540;2022-07-10T02:26:59;16.12;66.35
67586;SHT31;55785;47.946;20.540;2022-07-10T02:29:25;16.07;68.89
67586;SHT31;55785;47.946;20.540;2022-07-10T02:31:50;15.93;72.10
67586;SHT31;55785;47.946;20.540;2022-07-10T02:34:15;15.96;71.45
67586;SHT31;55785;47.946;20.540;2022-07-10T02:36:41;16.00;69.79
67586;SHT31;55785;47.946;20.540;2022-07-10T02:39:07;16.14;67.60
67586;SHT31;55785;47.946;20.540;2022-07-10T02:41:33;16.12;67.79
67586;SHT31;55785;47.946;20.540;2022-07-10T02:43:58;16.01;70.42
67586;SHT31;55785;47.946;20.540;2022-07-10T02:46:24;16.11;66.20
67586;SHT31;55785;47.946;20.540;2022-07-10T02:48:49;16.15;65.19
67586;SHT31;55785;47.946;20.540;2022-07-10T02:51:15;16.08;65.51
67586;SHT31;55785;47.946;20.540;2022-07-10T02:53:40;16.07;65.42
67586;SHT31;55785;47.946;20.540;2022-07-10T02:56:06;15.97;66.22
67586;SHT31;55785;47.946;20.540;2022-07-10T02:58:32;16.07;65.55
67586;SHT31;55785;47.946;20.540;2022-07-10T03:00:57;16.00;65.39
67586;SHT31;55785;47.946;20.540;2022-07-10T03:03:23;15.98;65.82
67586;SHT31;55785;47.946;20.540;2022-07-10T03:05:48;15.98;66.07
67586;SHT31;55785;47.946;20.540;2022-07-10T03:08:13;16.00;66.00
67586;SHT31;55785;47.946;20.540;2022-07-10T03:10:39;15.94;66.39
67586;SHT31;55785;47.946;20.540;2022-07-10T03:13:04;15.91;64.93
67586;SHT31;55785;47.946;20.540;2022-07-10T03:15:30;15.98;64.97
67586;SHT31;55785;47.946;20.540;2022-07-10T03:17:56;15.94;65.66
67586;SHT31;55785;47.946;20.540;2022-07-10T03:20:21;15.93;66.12
67586;SHT31;55785;47.946;20.540;2022-07-10T03:22:46;15.94;65.97
67586;SHT31;55785;47.946;20.540;2022-07-10T03:25:12;15.98;66.17
67586;SHT31;55785;47.946;20.540;2022-07-10T03:27:37;15.97;64.99
67586;SHT31;55785;47.946;20.540;2022-07-10T03:30:03;16.03;64.99
67586;SHT31;55785;47.946;20.540;2022-07-10T03:32:29;16.08;64.63
67586;SHT31;55785;47.946;20.540;2022-07-10T03:34:54;16.22;63.60
67586;SHT31;55785;47.946;20.540;2022-07-10T03:37:20;16.20;64.48
67586;SHT31;55785;47.946;20.540;2022-07-10T03:39:45;16.25;65.00
67586;SHT31;55785;47.946;20.540;2022-07-10T03:42:10;16.26;65.94
67586;SHT31;55785;47.946;20.540;2022-07-10T03:44:36;16.32;64.62
67586;SHT31;55785;47.946;20.540;2022-07-10T03:47:01;16.33;64.79
67586;SHT31;55785;47.946;20.540;2022-07-10T03:49:26;16.35;64.88
67586;SHT31;55785;47.946;20.540;2022-07-10T03:51:52;16.32;63.96
67586;SHT31;55785;47.946;20.540;2022-07-10T03:54:17;16.33;65.24
67586;SHT31;55785;47.946;20.540;2022-07-10T03:56:42;16.48;63.90
67586;SHT31;55785;47.946;20.540;2022-07-10T03:59:08;16.38;65.35
67586;SHT31;55785;47.946;20.540;2022-07-10T04:01:33;16.35;64.64
67586;SHT31;55785;47.946;20.540;2022-07-10T04:03:58;16.38;64.88
67586;SHT31;55785;47.946;20.540;2022-07-10T04:06:24;16.41;64.20
67586;SHT31;55785;47.946;20.540;2022-07-10T04:08:49;16.40;64.06
67586;SHT31;55785;47.946;20.540;2022-07-10T04:11:14;16.40;64.08
67586;SHT31;55785;47.946;20.540;2022-07-10T04:13:40;16.32;64.63
67586;SHT31;55785;47.946;20.540;2022-07-10T04:16:06;16.32;65.22
67586;SHT31;55785;47.946;20.540;2022-07-10T04:18:31;16.24;65.24
67586;SHT31;55785;47.946;20.540;2022-07-10T04:20:56;16.20;64.50
67586;SHT31;55785;47.946;20.540;2022-07-10T04:23:22;16.33;65.01
67586;SHT31;55785;47.946;20.540;2022-07-10T04:25:47;16.40;66.11
67586;SHT31;55785;47.946;20.540;2022-07-10T04:28:12;16.51;65.83
67586;SHT31;55785;47.946;20.540;2022-07-10T04:30:37;16.55;64.80
67586;SHT31;55785;47.946;20.540;2022-07-10T04:33:03;16.58;65.27
67586;SHT31;55785;47.946;20.540;2022-07-10T04:35:28;16.65;67.54
67586;SHT31;55785;47.946;20.540;2022-07-10T04:37:53;16.66;66.93
67586;SHT31;55785;47.946;20.540;2022-07-10T04:40:19;16.69;67.19
67586;SHT31;55785;47.946;20.540;2022-07-10T04:42:44;16.72;66.91
67586;SHT31;55785;47.946;20.540;2022-07-10T04:45:09;16.75;67.33
67586;SHT31;55785;47.946;20.540;2022-07-10T04:47:35;16.83;64.37
67586;SHT31;55785;47.946;20.540;2022-07-10T04:50:00;16.90;65.37
67586;SHT31;55785;47.946;20.540;2022-07-10T04:52:26;16.99;64.01
67586;SHT31;55785;47.946;20.540;2022-07-10T04:54:51;17.09;64.47
67586;SHT31;55785;47.946;20.540;2022-07-10T04:57:16;17.21;63.99
67586;SHT31;55785;47.946;20.540;2022-07-10T04:59:41;17.27;64.57
67586;SHT31;55785;47.946;20.540;2022-07-10T05:02:07;17.47;64.60
67586;SHT31;55785;47.946;20.540;2022-07-10T05:04:32;17.65;63.11
67586;SHT31;55785;47.946;20.540;2022-07-10T05:06:57;17.76;62.91
67586;SHT31;55785;47.946;20.540;2022-07-10T05:09:23;17.86;62.32
67586;SHT31;55785;47.946;20.540;2022-07-10T05:11:48;18.00;62.19
67586;SHT31;55785;47.946;20.540;2022-07-10T05:14:13;18.22;61.80
67586;SHT31;55785;47.946;20.540;2022-07-10T05:16:39;18.36;60.56
67586;SHT31;55785;47.946;20.540;2022-07-10T05:19:04;18.34;62.09
67586;SHT31;55785;47.946;20.540;2022-07-10T05:21:30;18.41;61.57
67586;SHT31;55785;47.946;20.540;2022-07-10T05:23:55;18.32;61.15
67586;SHT31;55785;47.946;20.540;2022-07-10T05:26:20;18.16;59.19
67586;SHT31;55785;47.946;20.540;2022-07-10T05:28:46;18.14;58.79
67586;SHT31;55785;47.946;20.540;2022-07-10T05:31:11;18.16;57.85
67586;SHT31;55785;47.946;20.540;2022-07-10T05:33:36;18.20;59.62
67586;SHT31;55785;47.946;20.540;2022-07-10T05:36:02;18.22;60.52
67586;SHT31;55785;47.946;20.540;2022-07-10T05:38:27;18.29;60.45
67586;SHT31;55785;47.946;20.540;2022-07-10T05:40:52;18.33;60.10
67586;SHT31;55785;47.946;20.540;2022-07-10T05:43:18;18.37;58.23
67586;SHT31;55785;47.946;20.540;2022-07-10T05:45:43;18.63;56.15
67586;SHT31;55785;47.946;20.540;2022-07-10T05:48:08;18.58;53.31
67586;SHT31;55785;47.946;20.540;2022-07-10T05:50:34;18.68;55.22
67586;SHT31;55785;47.946;20.540;2022-07-10T05:52:59;18.74;54.78
67586;SHT31;55785;47.946;20.540;2022-07-10T05:55:24;18.72;53.38
67586;SHT31;55785;47.946;20.540;2022-07-10T05:57:50;18.75;54.07
67586;SHT31;55785;47.946;20.540;2022-07-10T06:00:15;18.85;54.96
67586;SHT31;55785;47.946;20.540;2022-07-10T06:02:40;18.96;54.09
67586;SHT31;55785;47.946;20.540;2022-07-10T06:05:06;18.99;54.37
67586;SHT31;55785;47.946;20.540;2022-07-10T06:07:32;19.09;53.27
67586;SHT31;55785;47.946;20.540;2022-07-10T06:09:57;19.19;54.21
67586;SHT31;55785;47.946;20.540;2022-07-10T06:12:22;19.20;53.67
67586;SHT31;55785;47.946;20.540;2022-07-10T06:14:48;19.32;54.38
67586;SHT31;55785;47.946;20.540;2022-07-10T06:17:13;19.51;54.12
67586;SHT31;55785;47.946;20.540;2022-07-10T06:19:39;19.87;52.88
67586;SHT31;55785;47.946;20.540;2022-07-10T06:22:04;20.19;52.20
67586;SHT31;55785;47.946;20.540;2022-07-10T06:24:29;20.19;49.78
67586;SHT31;55785;47.946;20.540;2022-07-10T06:26:55;20.43;50.12
67586;SHT31;55785;47.946;20.540;2022-07-10T06:29:20;20.52;50.36
67586;SHT31;55785;47.946;20.540;2022-07-10T06:31:45;20.91;50.41
67586;SHT31;55785;47.946;20.540;2022-07-10T06:34:10;21.14;48.94
67586;SHT31;55785;47.946;20.540;2022-07-10T06:36:36;21.38;47.77
67586;SHT31;55785;47.946;20.540;2022-07-10T06:39:01;21.45;50.18
67586;SHT31;55785;47.946;20.540;2022-07-10T06:41:26;21.34;47.73
67586;SHT31;55785;47.946;20.540;2022-07-10T06:43:52;21.28;47.27
67586;SHT31;55785;47.946;20.540;2022-07-10T06:46:17;21.45;48.63
67586;SHT31;55785;47.946;20.540;2022-07-10T06:48:42;21.62;50.05
67586;SHT31;55785;47.946;20.540;2022-07-10T06:51:08;21.56;47.28
67586;SHT31;55785;47.946;20.540;2022-07-10T06:53:33;21.75;46.16
67586;SHT31;55785;47.946;20.540;2022-07-10T06:55:58;21.61;45.65
67586;SHT31;55785;47.946;20.540;2022-07-10T06:58:23;21.49;48.47
67586;SHT31;55785;47.946;20.540;2022-07-10T07:00:49;21.82;47.85
67586;SHT31;55785;47.946;20.540;2022-07-10T07:03:14;21.73;47.42
67586;SHT31;55785;47.946;20.540;2022-07-10T07:05:40;21.51;45.45
67586;SHT31;55785;47.946;20.540;2022-07-10T07:08:05;21.31;45.71
67586;SHT31;55785;47.946;20.540;2022-07-10T07:10:30;21.28;47.00
67586;SHT31;55785;47.946;20.540;2022-07-10T07:12:55;21.30;45.70
67586;SHT31;55785;47.946;20.540;2022-07-10T07:15:21;21.28;46.72
67586;SHT31;55785;47.946;20.540;2022-07-10T07:17:46;21.28;46.73
67586;SHT31;55785;47.946;20.540;2022-07-10T07:20:12;21.30;47.40
67586;SHT31;55785;47.946;20.540;2022-07-10T07:22:37;21.14;47.84
67586;SHT31;55785;47.946;20.540;2022-07-10T07:25:03;21.35;45.62
67586;SHT31;55785;47.946;20.540;2022-07-10T07:27:29;21.31;45.40
67586;SHT31;55785;47.946;20.540;2022-07-10T07:29:54;21.11;46.54
67586;SHT31;55785;47.946;20.540;2022-07-10T07:32:19;21.01;48.14
67586;SHT31;55785;47.946;20.540;2022-07-10T07:34:44;20.97;47.00
67586;SHT31;55785;47.946;20.540;2022-07-10T07:37:10;21.07;46.52
67586;SHT31;55785;47.946;20.540;2022-07-10T07:39:35;21.25;46.39
67586;SHT31;55785;47.946;20.540;2022-07-10T07:42:00;21.27;46.75
67586;SHT31;55785;47.946;20.540;2022-07-10T07:44:26;21.31;46.05
67586;SHT31;55785;47.946;20.540;2022-07-10T07:46:51;21.65;47.98
67586;SHT31;55785;47.946;20.540;2022-07-10T07:49:16;21.83;46.23
67586;SHT31;55785;47.946;20.540;2022-07-10T07:51:41;21.93;43.59
67586;SHT31;55785;47.946;20.540;2022-07-10T07:54:07;22.04;43.35
67586;SHT31;55785;47.946;20.540;2022-07-10T07:56:32;22.02;44.57
67586;SHT31;55785;47.946;20.540;2022-07-10T07:58:58;21.96;43.94
67586;SHT31;55785;47.946;20.540;2022-07-10T08:01:23;21.90;44.34
67586;SHT31;55785;47.946;20.540;2022-07-10T08:03:49;22.03;42.63
67586;SHT31;55785;47.946;20.540;2022-07-10T08:06:14;22.09;43.82
67586;SHT31;55785;47.946;20.540;2022-07-10T08:08:39;22.36;41.21
67586;SHT31;55785;47.946;20.540;2022-07-10T08:11:05;22.00;41.09
67586;SHT31;55785;47.946;20.540;2022-07-10T08:13:30;21.96;42.51
67586;SHT31;55785;47.946;20.540;2022-07-10T08:15:55;22.02;41.81
67586;SHT31;55785;47.946;20.540;2022-07-10T08:18:20;21.86;41.19
67586;SHT31;55785;47.946;20.540;2022-07-10T08:20:46;22.09;41.44
67586;SHT31;55785;47.946;20.540;2022-07-10T08:23:11;22.25;42.31
67586;SHT31;55785;47.946;20.540;2022-07-10T08:25:36;22.34;42.32
67586;SHT31;55785;47.946;20.540;2022-07-10T08:28:03;22.50;40.97
67586;SHT31;55785;47.946;20.540;2022-07-10T08:30:28;22.62;39.63
67586;SHT31;55785;47.946;20.540;2022-07-10T08:32:54;22.50;40.49
67586;SHT31;55785;47.946;20.540;2022-07-10T08:35:20;22.50;41.49
67586;SHT31;55785;47.946;20.540;2022-07-10T08:37:45;22.73;40.16
67586;SHT31;55785;47.946;20.540;2022-07-10T08:40:12;22.65;39.71
67586;SHT31;55785;47.946;20.540;2022-07-10T08:42:38;22.62;38.86
67586;SHT31;55785;47.946;20.540;2022-07-10T08:45:04;22.34;39.77
67586;SHT31;55785;47.946;20.540;2022-07-10T08:47:29;22.52;39.17
67586;SHT31;55785;47.946;20.540;2022-07-10T08:49:55;22.58;39.08
67586;SHT31;55785;47.946;20.540;2022-07-10T08:54:48;22.84;38.21
67586;SHT31;55785;47.946;20.540;2022-07-10T08:57:15;22.98;37.88
67586;SHT31;55785;47.946;20.540;2022-07-10T08:59:41;22.88;38.39
67586;SHT31;55785;47.946;20.540;2022-07-10T09:02:07;22.79;39.96
67586;SHT31;55785;47.946;20.540;2022-07-10T09:04:32;22.75;41.22
67586;SHT31;55785;47.946;20.540;2022-07-10T09:06:57;22.81;40.61
67586;SHT31;55785;47.946;20.540;2022-07-10T09:09:22;22.81;41.23
67586;SHT31;55785;47.946;20.540;2022-07-10T09:11:48;23.30;41.21
67586;SHT31;55785;47.946;20.540;2022-07-10T09:14:14;24.26;41.60
67586;SHT31;55785;47.946;20.540;2022-07-10T09:16:42;24.40;39.16
67586;SHT31;55785;47.946;20.540;2022-07-10T09:19:20;24.32;38.89
67586;SHT31;55785;47.946;20.540;2022-07-10T09:22:06;23.77;38.33
67586;SHT31;55785;47.946;20.540;2022-07-10T09:24:40;23.49;36.18
67586;SHT31;55785;47.946;20.540;2022-07-10T09:27:06;23.45;36.94
67586;SHT31;55785;47.946;20.540;2022-07-10T09:29:44;23.66;38.79
67586;SHT31;55785;47.946;20.540;2022-07-10T09:32:09;23.51;36.77
67586;SHT31;55785;47.946;20.540;2022-07-10T09:34:39;23.91;39.15
67586;SHT31;55785;47.946;20.540;2022-07-10T09:37:29;24.15;38.87
67586;SHT31;55785;47.946;20.540;2022-07-10T09:40:01;23.91;39.73
67586;SHT31;55785;47.946;20.540;2022-07-10T09:42:34;23.75;39.80
67586;SHT31;55785;47.946;20.540;2022-07-10T09:47:37;23.50;40.12
67586;SHT31;55785;47.946;20.540;2022-07-10T09:50:03;23.34;39.84
67586;SHT31;55785;47.946;20.540;2022-07-10T09:52:29;22.84;41.99
67586;SHT31;55785;47.946;20.540;2022-07-10T09:54:55;22.78;42.49
67586;SHT31;55785;47.946;20.540;2022-07-10T09:57:23;22.65;44.66
67586;SHT31;55785;47.946;20.540;2022-07-10T09:59:51;22.71;44.52
67586;SHT31;55785;47.946;20.540;2022-07-10T10:02:17;22.52;42.50
67586;SHT31;55785;47.946;20.540;2022-07-10T10:04:43;22.52;43.88
67586;SHT31;55785;47.946;20.540;2022-07-10T10:07:11;22.51;42.10
67586;SHT31;55785;47.946;20.540;2022-07-10T10:09:40;22.55;41.17
67586;SHT31;55785;47.946;20.540;2022-07-10T10:12:27;22.57;40.32
67586;SHT31;55785;47.946;20.540;2022-07-10T10:14:55;22.65;43.62
67586;SHT31;55785;47.946;20.540;2022-07-10T10:17:22;23.10;44.90
67586;SHT31;55785;47.946;20.540;2022-07-10T10:19:50;23.08;41.87
67586;SHT31;55785;47.946;20.540;2022-07-10T10:22:18;23.12;40.97
67586;SHT31;55785;47.946;20.540;2022-07-10T10:24:44;23.00;41.13
67586;SHT31;55785;47.946;20.540;2022-07-10T10:27:09;21.51;51.99
67586;SHT31;55785;47.946;20.540;2022-07-10T10:29:36;20.38;57.34
67586;SHT31;55785;47.946;20.540;2022-07-10T10:32:02;19.74;63.38
67586;SHT31;55785;47.946;20.540;2022-07-10T10:34:41;19.08;69.01
67586;SHT31;55785;47.946;20.540;2022-07-10T10:37:28;18.95;64.30
67586;SHT31;55785;47.946;20.540;2022-07-10T10:39:57;18.91;65.25
67586;SHT31;55785;47.946;20.540;2022-07-10T10:42:32;18.76;67.87
67586;SHT31;55785;47.946;20.540;2022-07-10T10:45:37;18.60;69.01
67586;SHT31;55785;47.946;20.540;2022-07-10T10:48:14;18.50;68.12
67586;SHT31;55785;47.946;20.540;2022-07-10T10:50:50;18.50;68.93
67586;SHT31;55785;47.946;20.540;2022-07-10T10:53:20;18.60;68.46
67586;SHT31;55785;47.946;20.540;2022-07-10T10:58:45;20.56;67.99
67586;SHT31;55785;47.946;20.540;2022-07-10T11:04:13;21.81;59.72
67586;SHT31;55785;47.946;20.540;2022-07-10T11:06:44;22.39;53.35
67586;SHT31;55785;47.946;20.540;2022-07-10T11:09:30;22.72;51.57
67586;SHT31;55785;47.946;20.540;2022-07-10T11:12:05;22.81;49.11
67586;SHT31;55785;47.946;20.540;2022-07-10T11:14:34;23.30;51.87
67586;SHT31;55785;47.946;20.540;2022-07-10T11:17:00;23.20;48.05
67586;SHT31;55785;47.946;20.540;2022-07-10T11:19:27;23.05;48.27
67586;SHT31;55785;47.946;20.540;2022-07-10T11:27:26;23.10;48.37
67586;SHT31;55785;47.946;20.540;2022-07-10T11:29:58;22.88;48.53
67586;SHT31;55785;47.946;20.540;2022-07-10T11:32:23;22.57;45.65
67586;SHT31;55785;47.946;20.540;2022-07-10T11:34:49;22.37;47.31
67586;SHT31;55785;47.946;20.540;2022-07-10T11:37:15;22.23;48.98
67586;SHT31;55785;47.946;20.540;2022-07-10T11:39:40;22.18;47.89
67586;SHT31;55785;47.946;20.540;2022-07-10T11:42:06;22.12;47.57
67586;SHT31;55785;47.946;20.540;2022-07-10T11:44:31;22.18;48.79
67586;SHT31;55785;47.946;20.540;2022-07-10T11:46:57;22.16;47.09
67586;SHT31;55785;47.946;20.540;2022-07-10T11:49:22;22.16;46.70
67586;SHT31;55785;47.946;20.540;2022-07-10T11:51:48;22.20;45.88
67586;SHT31;55785;47.946;20.540;2022-07-10T11:54:15;22.13;46.86
67586;SHT31;55785;47.946;20.540;2022-07-10T11:56:46;22.21;47.65
67586;SHT31;55785;47.946;20.540;2022-07-10T11:59:13;22.07;45.24
67586;SHT31;55785;47.946;20.540;2022-07-10T12:01:44;22.10;44.47
67586;SHT31;55785;47.946;20.540;2022-07-10T12:04:10;21.88;44.88
67586;SHT31;55785;47.946;20.540;2022-07-10T12:06:38;21.75;45.09
67586;SHT31;55785;47.946;20.540;2022-07-10T12:09:09;20.96;49.11
67586;SHT31;55785;47.946;20.540;2022-07-10T12:11:35;20.90;50.14
67586;SHT31;55785;47.946;20.540;2022-07-10T12:14:15;20.59;53.47
67586;SHT31;55785;47.946;20.540;2022-07-10T12:16:42;20.25;54.81
67586;SHT31;55785;47.946;20.540;2022-07-10T12:19:07;19.94;57.68
67586;SHT31;55785;47.946;20.540;2022-07-10T12:21:33;19.77;58.51
67586;SHT31;55785;47.946;20.540;2022-07-10T12:23:59;19.66;58.80
67586;SHT31;55785;47.946;20.540;2022-07-10T12:26:34;19.32;59.99
67586;SHT31;55785;47.946;20.540;2022-07-10T12:29:00;18.94;61.29
67586;SHT31;55785;47.946;20.540;2022-07-10T12:31:27;18.63;63.26
67586;SHT31;55785;47.946;20.540;2022-07-10T12:33:56;18.32;66.80
67586;SHT31;55785;47.946;20.540;2022-07-10T12:36:23;18.09;67.09
67586;SHT31;55785;47.946;20.540;2022-07-10T12:38:57;17.86;68.08
67586;SHT31;55785;47.946;20.540;2022-07-10T12:41:23;17.71;69.31
67586;SHT31;55785;47.946;20.540;2022-07-10T12:43:48;17.72;71.98
67586;SHT31;55785;47.946;20.540;2022-07-10T12:46:24;18.24;72.78
67586;SHT31;55785;47.946;20.540;2022-07-10T12:49:09;18.51;73.31
67586;SHT31;55785;47.946;20.540;2022-07-10T12:51:46;18.72;71.28
67586;SHT31;55785;47.946;20.540;2022-07-10T12:54:34;18.94;71.40
67586;SHT31;55785;47.946;20.540;2022-07-10T12:57:00;19.01;70.00
67586;SHT31;55785;47.946;20.540;2022-07-10T12:59:26;19.03;68.16
67586;SHT31;55785;47.946;20.540;2022-07-10T13:01:52;19.05;67.59
67586;SHT31;55785;47.946;20.540;2022-07-10T13:04:23;18.99;64.66
67586;SHT31;55785;47.946;20.540;2022-07-10T13:06:48;19.16;66.15
67586;SHT31;55785;47.946;20.540;2022-07-10T13:09:24;18.98;68.42
67586;SHT31;55785;47.946;20.540;2022-07-10T13:11:51;19.24;64.77
67586;SHT31;55785;47.946;20.540;2022-07-10T13:14:17;19.06;68.44
67586;SHT31;55785;47.946;20.540;2022-07-10T13:16:42;19.43;64.85
67586;SHT31;55785;47.946;20.540;2022-07-10T13:19:08;19.32;65.02
67586;SHT31;55785;47.946;20.540;2022-07-10T13:21:33;19.39;66.02
67586;SHT31;55785;47.946;20.540;2022-07-10T13:23:58;19.80;63.40
67586;SHT31;55785;47.946;20.540;2022-07-10T13:26:24;20.21;61.05
67586;SHT31;55785;47.946;20.540;2022-07-10T13:28:49;20.42;61.80
67586;SHT31;55785;47.946;20.540;2022-07-10T13:31:14;20.73;60.73
67586;SHT31;55785;47.946;20.540;2022-07-10T13:33:40;21.15;59.95
67586;SHT31;55785;47.946;20.540;2022-07-10T13:36:05;21.01;56.64
67586;SHT31;55785;47.946;20.540;2022-07-10T13:38:31;21.21;58.77
67586;SHT31;55785;47.946;20.540;2022-07-10T13:40:56;20.93;57.28
67586;SHT31;55785;47.946;20.540;2022-07-10T13:43:21;21.23;55.62
67586;SHT31;55785;47.946;20.540;2022-07-10T13:45:47;21.32;56.78
67586;SHT31;55785;47.946;20.540;2022-07-10T13:48:14;21.21;55.74
67586;SHT31;55785;47.946;20.540;2022-07-10T13:50:41;21.01;55.87
67586;SHT31;55785;47.946;20.540;2022-07-10T13:53:07;20.91;55.01
67586;SHT31;55785;47.946;20.540;2022-07-10T13:55:35;20.72;55.58
67586;SHT31;55785;47.946;20.540;2022-07-10T13:58:01;20.43;56.81
67586;SHT31;55785;47.946;20.540;2022-07-10T14:00:26;20.62;56.61
67586;SHT31;55785;47.946;20.540;2022-07-10T14:02:51;20.86;55.90
67586;SHT31;55785;47.946;20.540;2022-07-10T14:05:17;20.80;55.29
67586;SHT31;55785;47.946;20.540;2022-07-10T14:07:42;20.81;56.87
67586;SHT31;55785;47.946;20.540;2022-07-10T14:10:08;20.56;56.12
67586;SHT31;55785;47.946;20.540;2022-07-10T14:12:33;20.76;53.31
67586;SHT31;55785;47.946;20.540;2022-07-10T14:14:59;21.04;54.05
67586;SHT31;55785;47.946;20.540;2022-07-10T14:17:24;20.75;52.52
67586;SHT31;55785;47.946;20.540;2022-07-10T14:19:50;20.39;53.38
67586;SHT31;55785;47.946;20.540;2022-07-10T14:22:16;19.98;54.54
67586;SHT31;55785;47.946;20.540;2022-07-10T14:24:41;19.63;55.29
67586;SHT31;55785;47.946;20.540;2022-07-10T14:27:07;19.53;55.35
67586;SHT31;55785;47.946;20.540;2022-07-10T14:29:32;19.53;55.67
67586;SHT31;55785;47.946;20.540;2022-07-10T14:31:57;19.80;54.38
67586;SHT31;55785;47.946;20.540;2022-07-10T14:34:22;20.24;54.04
67586;SHT31;55785;47.946;20.540;2022-07-10T14:36:48;20.60;53.27
67586;SHT31;55785;47.946;20.540;2022-07-10T14:39:13;20.69;54.65
67586;SHT31;55785;47.946;20.540;2022-07-10T14:41:38;20.80;52.07
67586;SHT31;55785;47.946;20.540;2022-07-10T14:44:05;20.80;53.08
67586;SHT31;55785;47.946;20.540;2022-07-10T14:46:30;20.59;53.26
67586;SHT31;55785;47.946;20.540;2022-07-10T14:48:56;20.25;53.21
67586;SHT31;55785;47.946;20.540;2022-07-10T14:51:21;20.15;54.68
67586;SHT31;55785;47.946;20.540;2022-07-10T14:53:46;19.90;54.80
67586;SHT31;55785;47.946;20.540;2022-07-10T14:56:11;19.71;55.85
67586;SHT31;55785;47.946;20.540;2022-07-10T14:58:37;19.69;56.42
67586;SHT31;55785;47.946;20.540;2022-07-10T15:01:02;19.61;55.52
67586;SHT31;55785;47.946;20.540;2022-07-10T15:03:28;19.59;56.51
67586;SHT31;55785;47.946;20.540;2022-07-10T15:05:54;19.34;57.17
67586;SHT31;55785;47.946;20.540;2022-07-10T15:08:25;19.18;58.62
67586;SHT31;55785;47.946;20.540;2022-07-10T15:10:50;18.98;59.87
67586;SHT31;55785;47.946;20.540;2022-07-10T15:13:16;18.87;59.77
67586;SHT31;55785;47.946;20.540;2022-07-10T15:15:41;18.63;62.05
67586;SHT31;55785;47.946;20.540;2022-07-10T15:18:07;18.13;66.98
67586;SHT31;55785;47.946;20.540;2022-07-10T15:20:32;17.69;70.21
67586;SHT31;55785;47.946;20.540;2022-07-10T15:22:58;17.24;73.94
67586;SHT31;55785;47.946;20.540;2022-07-10T15:25:23;16.63;76.16
67586;SHT31;55785;47.946;20.540;2022-07-10T15:27:49;16.63;76.93